sensor_id;sensor_type;location;lat;lon;timestamp;P1;durP1;ratioP1;P2;durP2;ratioP2
60472;SDS011;46318;52.716;6.444;2024-03-23T00:55:32;34.22;;;9.65;;
60472;SDS011;46318;52.716;6.444;2024-03-23T00:57:57;31.42;;;9.63;;
60472;SDS011;46318;52.716;6.444;2024-03-23T01:00:23;26.73;;;9.05;;
60472;SDS011;46318;52.716;6.444;2024-03-23T01:02:52;30.27;;;9.15;;
60472;SDS011;46318;52.716;6.444;2024-03-23T01:05:18;27.70;;;9.30;;
60472;SDS011;46318;52.716;6.444;2024-03-23T01:07:47;26.63;;;9.00;;
60472;SDS011;46318;52.716;6.444;2024-03-23T01:10:13;26.20;;;9.07;;
60472;SDS011;46318;52.716;6.444;2024-03-23T01:12:39;29.35;;;9.88;;
60472;SDS011;46318;52.716;6.444;2024-03-23T01:15:05;29.10;;;8.77;;
60472;SDS011;46318;52.716;6.444;2024-03-23T01:17:31;33.15;;;9.32;;
60472;SDS011;46318;52.716;6.444;2024-03-23T01:19:57;24.63;;;9.10;;
60472;SDS011;46318;52.716;6.444;2024-03-23T01:22:29;24.88;;;9.98;;
60472;SDS011;46318;52.716;6.444;2024-03-23T01:24:58;29.92;;;8.88;;
60472;SDS011;46318;52.716;6.444;2024-03-23T01:27:24;30.17;;;9.10;;
60472;SDS011;46318;52.716;6.444;2024-03-23T01:29:50;29.90;;;8.25;;
60472;SDS011;46318;52.716;6.444;2024-03-23T01:32:17;26.20;;;9.90;;
60472;SDS011;46318;52.716;6.444;2024-03-23T01:34:44;23.83;;;9.27;;
60472;SDS011;46318;52.716;6.444;2024-03-23T01:37:10;31.02;;;8.85;;
60472;SDS011;46318;52.716;6.444;2024-03-23T01:39:36;33.42;;;9.70;;
60472;SDS011;46318;52.716;6.444;2024-03-23T01:42:02;30.70;;;8.57;;
60472;SDS011;46318;52.716;6.444;2024-03-23T01:44:28;22.60;;;8.68;;
60472;SDS011;46318;52.716;6.444;2024-03-23T01:46:54;27.45;;;9.30;;
60472;SDS011;46318;52.716;6.444;2024-03-23T01:49:20;28.52;;;9.02;;
60472;SDS011;46318;52.716;6.444;2024-03-23T01:51:46;27.30;;;8.55;;
60472;SDS011;46318;52.716;6.444;2024-03-23T01:54:12;23.83;;;8.15;;
60472;SDS011;46318;52.716;6.444;2024-03-23T01:56:38;24.20;;;8.15;;
60472;SDS011;46318;52.716;6.444;2024-03-23T01:59:05;34.13;;;9.43;;
60472;SDS011;46318;52.716;6.444;2024-03-23T02:01:35;29.77;;;7.85;;
60472;SDS011;46318;52.716;6.444;2024-03-23T02:04:01;25.65;;;8.38;;
60472;SDS011;46318;52.716;6.444;2024-03-23T02:06:30;23.27;;;8.35;;
60472;SDS011;46318;52.716;6.444;2024-03-23T02:08:56;30.38;;;8.68;;
60472;SDS011;46318;52.716;6.444;2024-03-23T02:11:22;24.70;;;7.65;;
60472;SDS011;46318;52.716;6.444;2024-03-23T02:13:48;20.42;;;7.90;;
60472;SDS011;46318;52.716;6.444;2024-03-23T02:16:14;27.33;;;8.65;;
60472;SDS011;46318;52.716;6.444;2024-03-23T02:18:40;27.92;;;8.85;;
60472;SDS011;46318;52.716;6.444;2024-03-23T02:21:11;29.02;;;8.10;;
60472;SDS011;46318;52.716;6.444;2024-03-23T02:23:36;25.60;;;9.00;;
60472;SDS011;46318;52.716;6.444;2024-03-23T02:26:02;28.85;;;8.60;;
60472;SDS011;46318;52.716;6.444;2024-03-23T02:28:28;22.58;;;8.90;;
60472;SDS011;46318;52.716;6.444;2024-03-23T02:30:54;23.60;;;8.18;;
60472;SDS011;46318;52.716;6.444;2024-03-23T02:33:20;23.42;;;8.63;;
60472;SDS011;46318;52.716;6.444;2024-03-23T02:35:49;24.60;;;8.05;;
60472;SDS011;46318;52.716;6.444;2024-03-23T02:38:18;21.65;;;7.50;;
60472;SDS011;46318;52.716;6.444;2024-03-23T02:40:44;24.88;;;8.10;;
60472;SDS011;46318;52.716;6.444;2024-03-23T02:43:09;26.27;;;8.85;;
60472;SDS011;46318;52.716;6.444;2024-03-23T02:45:35;21.33;;;8.20;;
60472;SDS011;46318;52.716;6.444;2024-03-23T02:48:01;27.90;;;8.55;;
60472;SDS011;46318;52.716;6.444;2024-03-23T02:50:28;26.35;;;8.73;;
60472;SDS011;46318;52.716;6.444;2024-03-23T02:52:54;22.33;;;8.40;;
60472;SDS011;46318;52.716;6.444;2024-03-23T02:55:23;24.15;;;8.45;;
60472;SDS011;46318;52.716;6.444;2024-03-23T02:57:48;25.55;;;8.48;;
60472;SDS011;46318;52.716;6.444;2024-03-23T03:00:14;27.45;;;8.50;;
60472;SDS011;46318;52.716;6.444;2024-03-23T03:02:41;22.75;;;9.05;;
60472;SDS011;46318;52.716;6.444;2024-03-23T03:05:07;24.35;;;8.25;;
60472;SDS011;46318;52.716;6.444;2024-03-23T03:07:34;25.88;;;9.02;;
60472;SDS011;46318;52.716;6.444;2024-03-23T03:10:00;24.38;;;8.95;;
60472;SDS011;46318;52.716;6.444;2024-03-23T03:12:30;19.25;;;8.38;;
60472;SDS011;46318;52.716;6.444;2024-03-23T03:14:55;25.83;;;8.38;;
60472;SDS011;46318;52.716;6.444;2024-03-23T03:17:24;24.60;;;9.35;;
60472;SDS011;46318;52.716;6.444;2024-03-23T03:19:50;20.85;;;7.85;;
60472;SDS011;46318;52.716;6.444;2024-03-23T03:22:20;19.77;;;8.35;;
60472;SDS011;46318;52.716;6.444;2024-03-23T03:24:47;22.83;;;8.45;;
60472;SDS011;46318;52.716;6.444;2024-03-23T03:27:13;30.75;;;8.88;;
60472;SDS011;46318;52.716;6.444;2024-03-23T03:29:40;26.23;;;9.00;;
60472;SDS011;46318;52.716;6.444;2024-03-23T03:32:08;25.17;;;8.73;;
60472;SDS011;46318;52.716;6.444;2024-03-23T03:34:34;24.48;;;9.20;;
60472;SDS011;46318;52.716;6.444;2024-03-23T03:37:00;25.65;;;8.80;;
60472;SDS011;46318;52.716;6.444;2024-03-23T03:39:26;26.83;;;9.15;;
60472;SDS011;46318;52.716;6.444;2024-03-23T03:41:52;27.00;;;9.02;;
60472;SDS011;46318;52.716;6.444;2024-03-23T03:44:17;22.73;;;8.80;;
60472;SDS011;46318;52.716;6.444;2024-03-23T03:46:43;25.00;;;8.55;;
60472;SDS011;46318;52.716;6.444;2024-03-23T03:49:09;27.88;;;9.82;;
60472;SDS011;46318;52.716;6.444;2024-03-23T03:51:35;27.35;;;8.85;;
60472;SDS011;46318;52.716;6.444;2024-03-23T03:54:01;20.85;;;8.98;;
60472;SDS011;46318;52.716;6.444;2024-03-23T03:56:30;30.80;;;9.65;;
60472;SDS011;46318;52.716;6.444;2024-03-23T03:58:59;29.85;;;9.27;;
60472;SDS011;46318;52.716;6.444;2024-03-23T04:01:24;25.05;;;8.27;;
60472;SDS011;46318;52.716;6.444;2024-03-23T04:03:50;26.85;;;9.18;;
60472;SDS011;46318;52.716;6.444;2024-03-23T04:06:19;25.42;;;9.48;;
60472;SDS011;46318;52.716;6.444;2024-03-23T04:08:48;27.02;;;9.25;;
60472;SDS011;46318;52.716;6.444;2024-03-23T04:11:14;22.17;;;8.35;;
60472;SDS011;46318;52.716;6.444;2024-03-23T04:13:40;19.55;;;8.50;;
60472;SDS011;46318;52.716;6.444;2024-03-23T04:16:06;27.73;;;8.93;;
60472;SDS011;46318;52.716;6.444;2024-03-23T04:18:34;19.83;;;7.80;;
60472;SDS011;46318;52.716;6.444;2024-03-23T04:21:01;26.75;;;9.23;;
60472;SDS011;46318;52.716;6.444;2024-03-23T04:23:28;23.90;;;8.27;;
60472;SDS011;46318;52.716;6.444;2024-03-23T04:25:53;23.83;;;8.38;;
60472;SDS011;46318;52.716;6.444;2024-03-23T04:28:19;28.10;;;9.05;;
60472;SDS011;46318;52.716;6.444;2024-03-23T04:30:45;19.55;;;7.97;;
60472;SDS011;46318;52.716;6.444;2024-03-23T04:33:11;18.88;;;8.18;;
60472;SDS011;46318;52.716;6.444;2024-03-23T04:35:37;27.08;;;8.70;;
60472;SDS011;46318;52.716;6.444;2024-03-23T04:38:03;27.02;;;8.65;;
60472;SDS011;46318;52.716;6.444;2024-03-23T04:40:29;21.73;;;8.07;;
60472;SDS011;46318;52.716;6.444;2024-03-23T04:43:07;24.85;;;8.80;;
60472;SDS011;46318;52.716;6.444;2024-03-23T04:45:35;23.10;;;8.17;;
60472;SDS011;46318;52.716;6.444;2024-03-23T04:48:06;23.10;;;8.43;;
60472;SDS011;46318;52.716;6.444;2024-03-23T04:50:35;21.45;;;7.82;;
60472;SDS011;46318;52.716;6.444;2024-03-23T04:53:08;23.45;;;8.07;;
60472;SDS011;46318;52.716;6.444;2024-03-23T04:55:34;23.77;;;8.05;;
60472;SDS011;46318;52.716;6.444;2024-03-23T04:58:02;23.08;;;7.95;;
60472;SDS011;46318;52.716;6.444;2024-03-23T05:00:28;20.52;;;8.18;;
60472;SDS011;46318;52.716;6.444;2024-03-23T05:02:54;20.10;;;7.13;;
60472;SDS011;46318;52.716;6.444;2024-03-23T05:05:20;22.23;;;7.22;;
60472;SDS011;46318;52.716;6.444;2024-03-23T05:07:51;21.73;;;7.80;;
60472;SDS011;46318;52.716;6.444;2024-03-23T05:10:17;21.85;;;7.20;;
60472;SDS011;46318;52.716;6.444;2024-03-23T05:12:43;22.67;;;7.72;;
60472;SDS011;46318;52.716;6.444;2024-03-23T05:15:10;23.52;;;7.20;;
60472;SDS011;46318;52.716;6.444;2024-03-23T05:17:36;25.33;;;7.35;;
60472;SDS011;46318;52.716;6.444;2024-03-23T05:20:05;20.35;;;6.88;;
60472;SDS011;46318;52.716;6.444;2024-03-23T05:22:35;20.05;;;7.15;;
60472;SDS011;46318;52.716;6.444;2024-03-23T05:25:01;20.10;;;6.85;;
60472;SDS011;46318;52.716;6.444;2024-03-23T05:27:36;21.55;;;7.75;;
60472;SDS011;46318;52.716;6.444;2024-03-23T05:30:01;18.88;;;7.00;;
60472;SDS011;46318;52.716;6.444;2024-03-23T05:32:29;23.58;;;7.20;;
60472;SDS011;46318;52.716;6.444;2024-03-23T05:34:54;21.08;;;7.03;;
60472;SDS011;46318;52.716;6.444;2024-03-23T05:37:22;25.85;;;6.60;;
60472;SDS011;46318;52.716;6.444;2024-03-23T05:39:48;18.65;;;6.95;;
60472;SDS011;46318;52.716;6.444;2024-03-23T05:42:17;21.67;;;6.90;;
60472;SDS011;46318;52.716;6.444;2024-03-23T05:44:44;19.17;;;6.35;;
60472;SDS011;46318;52.716;6.444;2024-03-23T05:47:12;17.95;;;6.28;;
60472;SDS011;46318;52.716;6.444;2024-03-23T05:49:41;18.95;;;6.60;;
60472;SDS011;46318;52.716;6.444;2024-03-23T05:52:08;20.70;;;6.68;;
60472;SDS011;46318;52.716;6.444;2024-03-23T05:54:38;17.58;;;7.10;;
60472;SDS011;46318;52.716;6.444;2024-03-23T05:57:04;18.80;;;6.22;;
60472;SDS011;46318;52.716;6.444;2024-03-23T05:59:32;19.25;;;6.38;;
60472;SDS011;46318;52.716;6.444;2024-03-23T06:01:58;20.55;;;6.05;;
60472;SDS011;46318;52.716;6.444;2024-03-23T06:04:24;19.17;;;6.07;;
60472;SDS011;46318;52.716;6.444;2024-03-23T06:06:53;20.40;;;6.90;;
60472;SDS011;46318;52.716;6.444;2024-03-23T06:09:22;17.38;;;5.78;;
60472;SDS011;46318;52.716;6.444;2024-03-23T06:11:51;15.13;;;6.22;;
60472;SDS011;46318;52.716;6.444;2024-03-23T06:14:20;23.23;;;6.63;;
60472;SDS011;46318;52.716;6.444;2024-03-23T06:16:49;20.52;;;7.22;;
60472;SDS011;46318;52.716;6.444;2024-03-23T06:19:15;18.63;;;6.70;;
60472;SDS011;46318;52.716;6.444;2024-03-23T06:21:44;21.98;;;6.63;;
60472;SDS011;46318;52.716;6.444;2024-03-23T06:24:11;18.50;;;6.07;;
60472;SDS011;46318;52.716;6.444;2024-03-23T06:26:37;12.57;;;5.20;;
60472;SDS011;46318;52.716;6.444;2024-03-23T06:29:03;15.88;;;5.18;;
60472;SDS011;46318;52.716;6.444;2024-03-23T06:31:30;22.40;;;5.50;;
60472;SDS011;46318;52.716;6.444;2024-03-23T06:33:56;19.25;;;5.75;;
60472;SDS011;46318;52.716;6.444;2024-03-23T06:36:35;19.33;;;6.28;;
60472;SDS011;46318;52.716;6.444;2024-03-23T06:39:03;15.45;;;5.43;;
60472;SDS011;46318;52.716;6.444;2024-03-23T06:41:29;13.35;;;5.68;;
60472;SDS011;46318;52.716;6.444;2024-03-23T06:43:58;19.75;;;6.18;;
60472;SDS011;46318;52.716;6.444;2024-03-23T06:46:24;20.42;;;6.18;;
60472;SDS011;46318;52.716;6.444;2024-03-23T06:48:50;19.55;;;6.35;;
60472;SDS011;46318;52.716;6.444;2024-03-23T06:51:18;18.52;;;5.65;;
60472;SDS011;46318;52.716;6.444;2024-03-23T06:53:44;19.83;;;6.60;;
60472;SDS011;46318;52.716;6.444;2024-03-23T06:56:16;15.13;;;5.35;;
60472;SDS011;46318;52.716;6.444;2024-03-23T06:58:42;14.75;;;4.90;;
60472;SDS011;46318;52.716;6.444;2024-03-23T07:01:08;13.80;;;4.80;;
60472;SDS011;46318;52.716;6.444;2024-03-23T07:03:36;13.50;;;4.90;;
60472;SDS011;46318;52.716;6.444;2024-03-23T07:06:07;15.27;;;5.32;;
60472;SDS011;46318;52.716;6.444;2024-03-23T07:08:35;18.05;;;5.47;;
60472;SDS011;46318;52.716;6.444;2024-03-23T07:11:02;15.30;;;5.45;;
60472;SDS011;46318;52.716;6.444;2024-03-23T07:13:30;12.50;;;5.28;;
60472;SDS011;46318;52.716;6.444;2024-03-23T07:15:59;19.40;;;6.10;;
60472;SDS011;46318;52.716;6.444;2024-03-23T07:18:29;16.98;;;6.05;;
60472;SDS011;46318;52.716;6.444;2024-03-23T07:20:55;15.25;;;6.15;;
60472;SDS011;46318;52.716;6.444;2024-03-23T07:23:38;20.83;;;7.15;;
60472;SDS011;46318;52.716;6.444;2024-03-23T07:26:10;16.05;;;5.53;;
60472;SDS011;46318;52.716;6.444;2024-03-23T07:28:36;19.88;;;6.78;;
60472;SDS011;46318;52.716;6.444;2024-03-23T07:31:13;21.42;;;6.53;;
60472;SDS011;46318;52.716;6.444;2024-03-23T07:33:46;17.60;;;6.78;;
60472;SDS011;46318;52.716;6.444;2024-03-23T07:36:13;11.90;;;3.90;;
60472;SDS011;46318;52.716;6.444;2024-03-23T07:38:43;8.18;;;3.13;;
60472;SDS011;46318;52.716;6.444;2024-03-23T07:41:14;9.35;;;2.58;;
60472;SDS011;46318;52.716;6.444;2024-03-23T07:43:46;8.93;;;3.22;;
60472;SDS011;46318;52.716;6.444;2024-03-23T07:46:18;7.13;;;2.75;;
60472;SDS011;46318;52.716;6.444;2024-03-23T07:48:46;6.18;;;2.53;;
60472;SDS011;46318;52.716;6.444;2024-03-23T07:53:49;8.43;;;2.63;;
60472;SDS011;46318;52.716;6.444;2024-03-23T07:56:18;9.38;;;2.83;;
60472;SDS011;46318;52.716;6.444;2024-03-23T07:58:45;4.97;;;2.58;;
60472;SDS011;46318;52.716;6.444;2024-03-23T08:01:16;6.47;;;2.75;;
60472;SDS011;46318;52.716;6.444;2024-03-23T08:06:18;3.50;;;1.80;;
60472;SDS011;46318;52.716;6.444;2024-03-23T08:08:46;3.38;;;1.30;;
60472;SDS011;46318;52.716;6.444;2024-03-23T08:11:19;4.28;;;1.55;;
60472;SDS011;46318;52.716;6.444;2024-03-23T08:13:45;3.75;;;1.85;;
60472;SDS011;46318;52.716;6.444;2024-03-23T08:16:11;4.72;;;1.98;;
60472;SDS011;46318;52.716;6.444;2024-03-23T08:18:39;5.20;;;1.77;;
60472;SDS011;46318;52.716;6.444;2024-03-23T08:21:05;4.15;;;1.65;;
60472;SDS011;46318;52.716;6.444;2024-03-23T08:23:34;3.67;;;1.67;;
60472;SDS011;46318;52.716;6.444;2024-03-23T08:26:04;8.13;;;1.90;;
60472;SDS011;46318;52.716;6.444;2024-03-23T08:28:33;4.88;;;2.08;;
60472;SDS011;46318;52.716;6.444;2024-03-23T08:31:01;6.43;;;2.00;;
60472;SDS011;46318;52.716;6.444;2024-03-23T08:33:37;4.78;;;2.33;;
60472;SDS011;46318;52.716;6.444;2024-03-23T08:38:35;7.93;;;2.63;;
60472;SDS011;46318;52.716;6.444;2024-03-23T08:41:02;5.75;;;2.75;;
60472;SDS011;46318;52.716;6.444;2024-03-23T08:43:36;7.38;;;3.20;;
60472;SDS011;46318;52.716;6.444;2024-03-23T08:46:07;7.43;;;2.80;;
60472;SDS011;46318;52.716;6.444;2024-03-23T08:48:45;7.45;;;2.72;;
60472;SDS011;46318;52.716;6.444;2024-03-23T08:51:14;7.30;;;2.50;;
60472;SDS011;46318;52.716;6.444;2024-03-23T08:53:41;9.77;;;2.75;;
60472;SDS011;46318;52.716;6.444;2024-03-23T08:56:11;6.80;;;2.03;;
60472;SDS011;46318;52.716;6.444;2024-03-23T08:58:45;7.75;;;2.20;;
60472;SDS011;46318;52.716;6.444;2024-03-23T09:01:13;6.70;;;2.33;;
60472;SDS011;46318;52.716;6.444;2024-03-23T09:03:42;10.38;;;2.55;;
60472;SDS011;46318;52.716;6.444;2024-03-23T09:06:08;4.65;;;2.40;;
60472;SDS011;46318;52.716;6.444;2024-03-23T09:08:42;8.48;;;2.60;;
60472;SDS011;46318;52.716;6.444;2024-03-23T09:11:08;8.32;;;2.55;;
60472;SDS011;46318;52.716;6.444;2024-03-23T09:13:37;6.60;;;2.00;;
60472;SDS011;46318;52.716;6.444;2024-03-23T09:16:04;7.00;;;2.10;;
60472;SDS011;46318;52.716;6.444;2024-03-23T09:18:34;8.32;;;2.38;;
60472;SDS011;46318;52.716;6.444;2024-03-23T09:21:10;7.82;;;2.63;;
60472;SDS011;46318;52.716;6.444;2024-03-23T09:23:44;6.05;;;2.03;;
60472;SDS011;46318;52.716;6.444;2024-03-23T09:26:14;8.63;;;2.13;;
60472;SDS011;46318;52.716;6.444;2024-03-23T09:28:40;6.32;;;2.42;;
60472;SDS011;46318;52.716;6.444;2024-03-23T09:31:07;7.35;;;2.85;;
60472;SDS011;46318;52.716;6.444;2024-03-23T09:33:37;8.32;;;3.03;;
60472;SDS011;46318;52.716;6.444;2024-03-23T09:36:04;9.43;;;3.50;;
60472;SDS011;46318;52.716;6.444;2024-03-23T09:38:30;11.50;;;3.45;;
60472;SDS011;46318;52.716;6.444;2024-03-23T09:41:06;12.35;;;3.15;;
60472;SDS011;46318;52.716;6.444;2024-03-23T09:43:37;8.98;;;3.20;;
60472;SDS011;46318;52.716;6.444;2024-03-23T09:46:03;5.78;;;2.20;;
60472;SDS011;46318;52.716;6.444;2024-03-23T09:48:30;6.43;;;2.28;;
60472;SDS011;46318;52.716;6.444;2024-03-23T09:51:02;5.00;;;1.75;;
60472;SDS011;46318;52.716;6.444;2024-03-23T09:53:37;5.70;;;2.35;;
60472;SDS011;46318;52.716;6.444;2024-03-23T09:56:04;8.15;;;2.50;;
60472;SDS011;46318;52.716;6.444;2024-03-23T09:58:30;6.50;;;2.42;;
60472;SDS011;46318;52.716;6.444;2024-03-23T10:00:59;8.27;;;2.10;;
60472;SDS011;46318;52.716;6.444;2024-03-23T10:03:25;6.10;;;2.13;;
60472;SDS011;46318;52.716;6.444;2024-03-23T10:06:01;4.00;;;1.55;;
60472;SDS011;46318;52.716;6.444;2024-03-23T10:08:30;3.75;;;1.17;;
60472;SDS011;46318;52.716;6.444;2024-03-23T10:11:01;4.03;;;1.30;;
60472;SDS011;46318;52.716;6.444;2024-03-23T10:13:41;4.97;;;1.50;;
60472;SDS011;46318;52.716;6.444;2024-03-23T10:16:08;4.35;;;1.75;;
60472;SDS011;46318;52.716;6.444;2024-03-23T10:18:39;4.82;;;1.52;;
60472;SDS011;46318;52.716;6.444;2024-03-23T10:23:42;8.00;;;2.25;;
60472;SDS011;46318;52.716;6.444;2024-03-23T10:26:13;9.20;;;2.42;;
60472;SDS011;46318;52.716;6.444;2024-03-23T10:31:35;8.38;;;2.63;;
60472;SDS011;46318;52.716;6.444;2024-03-23T10:34:02;9.73;;;2.72;;
60472;SDS011;46318;52.716;6.444;2024-03-23T10:36:34;9.32;;;2.80;;
60472;SDS011;46318;52.716;6.444;2024-03-23T10:39:09;8.73;;;2.55;;
60472;SDS011;46318;52.716;6.444;2024-03-23T10:41:49;10.15;;;2.80;;
60472;SDS011;46318;52.716;6.444;2024-03-23T10:44:19;7.93;;;2.85;;
60472;SDS011;46318;52.716;6.444;2024-03-23T10:46:46;7.93;;;2.67;;
60472;SDS011;46318;52.716;6.444;2024-03-23T10:49:12;10.43;;;2.88;;
60472;SDS011;46318;52.716;6.444;2024-03-23T10:51:41;9.63;;;2.75;;
60472;SDS011;46318;52.716;6.444;2024-03-23T10:54:08;9.98;;;2.88;;
60472;SDS011;46318;52.716;6.444;2024-03-23T10:56:41;10.75;;;3.22;;
60472;SDS011;46318;52.716;6.444;2024-03-23T10:59:07;8.27;;;3.40;;
60472;SDS011;46318;52.716;6.444;2024-03-23T11:01:55;8.23;;;3.15;;
60472;SDS011;46318;52.716;6.444;2024-03-23T11:09:51;6.50;;;2.42;;
60472;SDS011;46318;52.716;6.444;2024-03-23T11:14:57;7.60;;;2.42;;
60472;SDS011;46318;52.716;6.444;2024-03-23T11:17:34;8.07;;;2.80;;
60472;SDS011;46318;52.716;6.444;2024-03-23T11:20:01;12.85;;;3.13;;
60472;SDS011;46318;52.716;6.444;2024-03-23T11:22:38;8.48;;;2.72;;
60472;SDS011;46318;52.716;6.444;2024-03-23T11:25:19;5.65;;;2.45;;
60472;SDS011;46318;52.716;6.444;2024-03-23T11:27:46;8.95;;;3.53;;
60472;SDS011;46318;52.716;6.444;2024-03-23T11:30:17;10.93;;;3.45;;
60472;SDS011;46318;52.716;6.444;2024-03-23T11:32:55;10.00;;;3.03;;
60472;SDS011;46318;52.716;6.444;2024-03-23T11:35:29;6.18;;;2.47;;
60472;SDS011;46318;52.716;6.444;2024-03-23T11:38:16;8.93;;;3.28;;
60472;SDS011;46318;52.716;6.444;2024-03-23T11:40:47;10.15;;;2.90;;
60472;SDS011;46318;52.716;6.444;2024-03-23T11:43:18;8.97;;;2.90;;
60472;SDS011;46318;52.716;6.444;2024-03-23T11:45:48;8.77;;;3.00;;
60472;SDS011;46318;52.716;6.444;2024-03-23T11:48:38;9.60;;;2.65;;
60472;SDS011;46318;52.716;6.444;2024-03-23T11:51:04;8.68;;;3.28;;
60472;SDS011;46318;52.716;6.444;2024-03-23T11:53:31;11.27;;;3.70;;
60472;SDS011;46318;52.716;6.444;2024-03-23T11:56:05;10.18;;;3.00;;
60472;SDS011;46318;52.716;6.444;2024-03-23T11:58:43;8.45;;;3.15;;
60472;SDS011;46318;52.716;6.444;2024-03-23T12:01:14;9.05;;;3.03;;
60472;SDS011;46318;52.716;6.444;2024-03-23T12:03:43;7.57;;;3.13;;
60472;SDS011;46318;52.716;6.444;2024-03-23T12:06:12;8.98;;;2.90;;
60472;SDS011;46318;52.716;6.444;2024-03-23T12:08:46;5.68;;;3.08;;
60472;SDS011;46318;52.716;6.444;2024-03-23T12:11:20;10.88;;;3.83;;
60472;SDS011;46318;52.716;6.444;2024-03-23T12:13:48;9.57;;;3.20;;
60472;SDS011;46318;52.716;6.444;2024-03-23T12:16:17;8.32;;;2.28;;
60472;SDS011;46318;52.716;6.444;2024-03-23T12:18:46;6.95;;;2.25;;
60472;SDS011;46318;52.716;6.444;2024-03-23T12:21:18;7.03;;;3.13;;
60472;SDS011;46318;52.716;6.444;2024-03-23T12:23:44;11.95;;;3.00;;
60472;SDS011;46318;52.716;6.444;2024-03-23T12:26:15;9.80;;;3.03;;
60472;SDS011;46318;52.716;6.444;2024-03-23T12:31:10;8.05;;;2.40;;
60472;SDS011;46318;52.716;6.444;2024-03-23T12:33:36;7.65;;;2.53;;
60472;SDS011;46318;52.716;6.444;2024-03-23T12:36:02;6.50;;;2.40;;
60472;SDS011;46318;52.716;6.444;2024-03-23T12:38:32;4.28;;;1.38;;
60472;SDS011;46318;52.716;6.444;2024-03-23T12:40:58;4.00;;;1.33;;
60472;SDS011;46318;52.716;6.444;2024-03-23T12:43:33;5.47;;;1.30;;
60472;SDS011;46318;52.716;6.444;2024-03-23T12:46:01;5.22;;;1.38;;
60472;SDS011;46318;52.716;6.444;2024-03-23T12:48:26;4.78;;;1.70;;
60472;SDS011;46318;52.716;6.444;2024-03-23T12:50:56;5.72;;;1.52;;
60472;SDS011;46318;52.716;6.444;2024-03-23T12:53:22;7.15;;;2.17;;
60472;SDS011;46318;52.716;6.444;2024-03-23T12:55:48;7.28;;;2.50;;
60472;SDS011;46318;52.716;6.444;2024-03-23T12:58:14;8.27;;;2.40;;
60472;SDS011;46318;52.716;6.444;2024-03-23T13:00:40;7.55;;;2.15;;
60472;SDS011;46318;52.716;6.444;2024-03-23T13:03:06;7.97;;;2.13;;
60472;SDS011;46318;52.716;6.444;2024-03-23T13:05:38;10.85;;;3.08;;
60472;SDS011;46318;52.716;6.444;2024-03-23T13:08:12;11.27;;;3.08;;
60472;SDS011;46318;52.716;6.444;2024-03-23T13:10:38;10.70;;;2.88;;
60472;SDS011;46318;52.716;6.444;2024-03-23T13:13:03;7.40;;;3.20;;
60472;SDS011;46318;52.716;6.444;2024-03-23T13:15:29;8.60;;;3.20;;
60472;SDS011;46318;52.716;6.444;2024-03-23T13:17:56;11.02;;;3.47;;
60472;SDS011;46318;52.716;6.444;2024-03-23T13:20:22;10.38;;;3.17;;
60472;SDS011;46318;52.716;6.444;2024-03-23T13:22:51;7.80;;;3.00;;
60472;SDS011;46318;52.716;6.444;2024-03-23T13:25:17;8.25;;;3.00;;
60472;SDS011;46318;52.716;6.444;2024-03-23T13:27:45;10.63;;;3.28;;
60472;SDS011;46318;52.716;6.444;2024-03-23T13:30:11;8.02;;;2.85;;
60472;SDS011;46318;52.716;6.444;2024-03-23T13:32:37;8.80;;;3.17;;
60472;SDS011;46318;52.716;6.444;2024-03-23T13:35:03;9.15;;;3.50;;
60472;SDS011;46318;52.716;6.444;2024-03-23T13:37:31;12.68;;;3.33;;
60472;SDS011;46318;52.716;6.444;2024-03-23T13:39:57;11.02;;;2.97;;
60472;SDS011;46318;52.716;6.444;2024-03-23T13:42:24;7.57;;;3.13;;
60472;SDS011;46318;52.716;6.444;2024-03-23T13:44:51;10.35;;;3.20;;
60472;SDS011;46318;52.716;6.444;2024-03-23T13:47:17;7.25;;;2.17;;
60472;SDS011;46318;52.716;6.444;2024-03-23T13:49:44;3.50;;;1.45;;
60472;SDS011;46318;52.716;6.444;2024-03-23T13:52:14;3.15;;;1.10;;
60472;SDS011;46318;52.716;6.444;2024-03-23T13:54:40;3.88;;;1.40;;
60472;SDS011;46318;52.716;6.444;2024-03-23T13:57:14;7.60;;;2.05;;
60472;SDS011;46318;52.716;6.444;2024-03-23T13:59:42;6.03;;;1.85;;
60472;SDS011;46318;52.716;6.444;2024-03-23T14:02:08;10.52;;;2.60;;
60472;SDS011;46318;52.716;6.444;2024-03-23T14:04:36;7.30;;;2.33;;
60472;SDS011;46318;52.716;6.444;2024-03-23T14:07:03;7.00;;;3.40;;
60472;SDS011;46318;52.716;6.444;2024-03-23T14:09:29;9.70;;;3.22;;
60472;SDS011;46318;52.716;6.444;2024-03-23T14:11:58;8.82;;;3.00;;
60472;SDS011;46318;52.716;6.444;2024-03-23T14:14:25;9.80;;;2.72;;
60472;SDS011;46318;52.716;6.444;2024-03-23T14:17:03;11.23;;;3.03;;
60472;SDS011;46318;52.716;6.444;2024-03-23T14:19:29;7.40;;;2.88;;
60472;SDS011;46318;52.716;6.444;2024-03-23T14:21:55;10.25;;;3.00;;
60472;SDS011;46318;52.716;6.444;2024-03-23T14:24:21;7.60;;;2.90;;
60472;SDS011;46318;52.716;6.444;2024-03-23T14:26:52;7.63;;;2.75;;
60472;SDS011;46318;52.716;6.444;2024-03-23T14:29:18;9.05;;;3.30;;
60472;SDS011;46318;52.716;6.444;2024-03-23T14:31:47;9.57;;;3.17;;
60472;SDS011;46318;52.716;6.444;2024-03-23T14:34:13;11.88;;;2.90;;
60472;SDS011;46318;52.716;6.444;2024-03-23T14:36:38;7.72;;;2.30;;
60472;SDS011;46318;52.716;6.444;2024-03-23T14:39:11;7.30;;;2.50;;
60472;SDS011;46318;52.716;6.444;2024-03-23T14:41:40;7.50;;;2.10;;
60472;SDS011;46318;52.716;6.444;2024-03-23T14:44:09;6.25;;;2.25;;
60472;SDS011;46318;52.716;6.444;2024-03-23T14:46:35;7.55;;;3.08;;
60472;SDS011;46318;52.716;6.444;2024-03-23T14:49:01;8.70;;;2.75;;
60472;SDS011;46318;52.716;6.444;2024-03-23T14:51:27;8.80;;;3.30;;
60472;SDS011;46318;52.716;6.444;2024-03-23T14:53:53;11.35;;;3.85;;
60472;SDS011;46318;52.716;6.444;2024-03-23T14:56:19;8.43;;;3.60;;
60472;SDS011;46318;52.716;6.444;2024-03-23T14:58:45;9.25;;;3.78;;
60472;SDS011;46318;52.716;6.444;2024-03-23T15:01:14;9.88;;;4.05;;
60472;SDS011;46318;52.716;6.444;2024-03-23T15:03:43;9.75;;;3.78;;
60472;SDS011;46318;52.716;6.444;2024-03-23T15:06:09;10.18;;;3.30;;
60472;SDS011;46318;52.716;6.444;2024-03-23T15:08:38;6.57;;;3.10;;
60472;SDS011;46318;52.716;6.444;2024-03-23T15:11:05;9.70;;;3.17;;
60472;SDS011;46318;52.716;6.444;2024-03-23T15:13:36;8.68;;;3.50;;
60472;SDS011;46318;52.716;6.444;2024-03-23T15:16:16;10.57;;;3.80;;
60472;SDS011;46318;52.716;6.444;2024-03-23T15:18:48;11.15;;;3.80;;
60472;SDS011;46318;52.716;6.444;2024-03-23T15:21:14;10.23;;;3.90;;
60472;SDS011;46318;52.716;6.444;2024-03-23T15:23:45;10.60;;;4.07;;
60472;SDS011;46318;52.716;6.444;2024-03-23T15:28:42;6.30;;;1.88;;
60472;SDS011;46318;52.716;6.444;2024-03-23T15:31:28;3.80;;;1.80;;
60472;SDS011;46318;52.716;6.444;2024-03-23T15:33:55;5.10;;;1.85;;
60472;SDS011;46318;52.716;6.444;2024-03-23T15:36:21;5.82;;;2.70;;
60472;SDS011;46318;52.716;6.444;2024-03-23T15:38:47;10.75;;;3.10;;
60472;SDS011;46318;52.716;6.444;2024-03-23T15:41:15;13.77;;;3.05;;
60472;SDS011;46318;52.716;6.444;2024-03-23T15:43:47;11.95;;;3.35;;
60472;SDS011;46318;52.716;6.444;2024-03-23T15:46:13;8.90;;;3.17;;
60472;SDS011;46318;52.716;6.444;2024-03-23T15:48:39;9.07;;;2.90;;
60472;SDS011;46318;52.716;6.444;2024-03-23T15:51:05;6.63;;;2.20;;
60472;SDS011;46318;52.716;6.444;2024-03-23T15:53:46;7.45;;;2.33;;
60472;SDS011;46318;52.716;6.444;2024-03-23T15:56:12;9.10;;;2.60;;
60472;SDS011;46318;52.716;6.444;2024-03-23T15:58:38;7.68;;;2.20;;
60472;SDS011;46318;52.716;6.444;2024-03-23T16:01:07;8.80;;;2.00;;
60472;SDS011;46318;52.716;6.444;2024-03-23T16:03:34;5.85;;;3.30;;
60472;SDS011;46318;52.716;6.444;2024-03-23T16:06:01;7.03;;;2.67;;
60472;SDS011;46318;52.716;6.444;2024-03-23T16:08:28;8.95;;;2.85;;